Time;durP1;ratioP1;P1;durP2;ratioP2;P2;SDS_P1;SDS_P2;PMS_P1;PMS_P2;Temp;Humidity;BMP_temperature;BMP_pressure;BME280_temperature;BME280_humidity;BME280_pressure;Samples;Min_cycle;Max_cycle;Signal;HPM_P1;HPM_P2
2024/03/27 00:01:30;;;;;;;13.18;6.28;;;;;;;7.27;100.00;98254.41;5069053;28;20047;-79
2024/03/27 00:03:56;;;;;;;;;;;;;;;7.18;100.00;98238.66;5068860;28;20499;-78
2024/03/27 00:06:21;;;;;;;13.60;6.43;;;;;;;7.18;100.00;98238.66;5083183;28;19973;-78
2024/03/27 00:08:47;;;;;;;10.57;6.47;;;;;;;7.17;100.00;98268.06;5074862;28;20423;-81
2024/03/27 00:11:13;;;;;;;14.07;7.13;;;;;;;7.11;100.00;98234.38;5058140;28;20032;-80
2024/03/27 00:13:38;;;;;;;10.83;6.23;;;;;;;7.15;100.00;98241.72;5074531;28;20032;-79
2024/03/27 00:16:04;;;;;;;10.83;6.53;;;;;;;7.14;100.00;98213.56;5049677;28;20305;-78
2024/03/27 00:18:29;;;;;;;10.20;5.90;;;;;;;6.91;100.00;98191.91;5068336;28;20756;-80
2024/03/27 00:20:55;;;;;;;16.92;7.47;;;;;;;6.87;100.00;98239.22;5062249;28;20024;-78
2024/03/27 00:23:21;;;;;;;12.75;6.80;;;;;;;6.94;100.00;98279.84;5071450;28;20031;-79
2024/03/27 00:25:55;;;;;;;11.98;7.72;;;;;;;7.00;100.00;98254.38;5069345;28;20099;-79
2024/03/27 00:28:21;;;;;;;10.02;6.18;;;;;;;6.89;100.00;98241.69;5070292;28;20036;-79
2024/03/27 00:30:46;;;;;;;11.35;6.40;;;;;;;6.78;100.00;98258.97;5075930;28;20103;-79
2024/03/27 00:33:14;;;;;;;10.47;6.73;;;;;;;6.92;100.00;98295.13;5065434;28;20032;-81
2024/03/27 00:35:39;;;;;;;11.88;7.43;;;;;;;6.86;100.00;98265.94;5052433;28;20035;-80
2024/03/27 00:38:05;;;;;;;12.63;6.13;;;;;;;6.79;100.00;98246.53;5068080;28;20025;-77
2024/03/27 00:40:31;;;;;;;14.53;7.13;;;;;;;6.90;100.00;98275.13;5068973;28;20482;-77
2024/03/27 00:42:56;;;;;;;9.85;6.15;;;;;;;6.75;100.00;98232.88;5066506;28;20082;-78
2024/03/27 00:45:21;;;;;;;8.13;6.13;;;;;;;6.90;100.00;98270.63;5067207;28;20025;-80
2024/03/27 00:47:47;;;;;;;11.43;6.13;;;;;;;6.67;100.00;98247.13;5049348;28;20391;-80
2024/03/27 00:50:12;;;;;;;12.23;7.20;;;;;;;6.68;100.00;98291.19;5078912;28;20060;-78
2024/03/27 00:52:37;;;;;;;11.87;7.10;;;;;;;6.86;100.00;98297.75;5068939;28;20282;-78
2024/03/27 00:55:03;;;;;;;11.00;6.67;;;;;;;6.69;100.00;98276.88;5062973;28;20028;-78
2024/03/27 00:57:29;;;;;;;13.60;6.72;;;;;;;6.79;100.00;98275.69;5069169;28;20422;-79
2024/03/27 00:59:55;;;;;;;12.40;6.93;;;;;;;6.76;100.00;98243.25;5074063;28;20057;-78
2024/03/27 01:02:20;;;;;;;11.07;7.40;;;;;;;6.64;100.00;98257.28;5072891;28;20127;-78
2024/03/27 01:04:50;;;;;;;10.13;6.30;;;;;;;6.58;100.00;98244.81;5069637;28;20566;-79
2024/03/27 01:07:15;;;;;;;11.38;6.90;;;;;;;6.58;100.00;98240.34;5077968;28;20024;-80
2024/03/27 01:09:41;;;;;;;10.43;7.53;;;;;;;6.64;100.00;98263.41;5086239;28;20422;-79
2024/03/27 01:12:07;;;;;;;11.32;6.78;;;;;;;6.65;100.00;98270.38;5070296;28;20383;-78
2024/03/27 01:14:32;;;;;;;;;;;;;;;6.61;100.00;98255.06;5070225;28;20063;-78
2024/03/27 01:16:58;;;;;;;11.93;7.28;;;;;;;6.57;100.00;98230.75;5077588;28;19947;-79
2024/03/27 01:19:24;;;;;;;15.17;7.47;;;;;;;6.50;100.00;98235.22;5052744;28;20058;-78
2024/03/27 01:21:49;;;;;;;11.30;6.47;;;;;;;6.49;100.00;98230.94;5069336;28;20856;-79
2024/03/27 01:24:15;;;;;;;10.48;7.20;;;;;;;6.48;100.00;98229.28;5070500;28;20095;-80
2024/03/27 01:26:40;;;;;;;11.07;6.77;;;;;;;6.60;100.00;98218.94;5078258;28;20081;-78
2024/03/27 01:29:05;;;;;;;12.43;6.90;;;;;;;6.55;100.00;98198.31;5068852;28;20298;-78
2024/03/27 01:31:31;;;;;;;11.77;7.20;;;;;;;6.45;100.00;98187.28;5070055;28;20498;-79
2024/03/27 01:33:56;;;;;;;13.07;7.43;;;;;;;6.45;100.00;98211.13;5069220;28;20036;-78
2024/03/27 01:36:21;;;;;;;18.17;8.93;;;;;;;6.52;100.00;98207.50;5068021;28;20028;-79
2024/03/27 01:38:47;;;;;;;12.03;7.33;;;;;;;6.50;100.00;98200.75;5069300;28;20437;-78
2024/03/27 01:41:12;;;;;;;13.20;8.30;;;;;;;6.24;100.00;98178.44;5070291;28;20082;-78
2024/03/27 01:43:38;;;;;;;13.60;7.20;;;;;;;6.39;100.00;98207.47;5073922;28;20035;-79
2024/03/27 01:46:09;;;;;;;12.03;7.27;;;;;;;6.38;100.00;98200.50;5068640;28;20032;-77
2024/03/27 01:48:35;;;;;;;13.23;7.68;;;;;;;6.36;100.00;98201.72;5069927;28;20024;-79
2024/03/27 01:51:00;;;;;;;11.13;7.55;;;;;;;6.34;100.00;98205.41;5070011;28;20025;-80
2024/03/27 01:53:27;;;;;;;14.10;7.50;;;;;;;6.31;100.00;98183.75;5068647;28;20065;-79
2024/03/27 01:55:53;;;;;;;12.43;7.18;;;;;;;6.23;100.00;98191.91;5068843;28;20070;-78
2024/03/27 01:58:18;;;;;;;16.75;8.38;;;;;;;6.20;100.00;98190.44;5068415;28;20032;-79
2024/03/27 02:00:44;;;;;;;12.43;7.30;;;;;;;6.16;100.00;98202.44;5077309;28;20024;-79
2024/03/27 02:03:10;;;;;;;12.18;7.38;;;;;;;6.25;100.00;98197.78;5081734;28;20029;-78
2024/03/27 02:05:36;;;;;;;;;;;;;;;6.21;100.00;98173.53;5068895;28;20483;-78
2024/03/27 02:08:01;;;;;;;12.52;7.65;;;;;;;6.11;100.00;98157.16;5070607;28;19958;-79
2024/03/27 02:10:27;;;;;;;13.93;7.93;;;;;;;6.03;100.00;98173.25;5072610;28;20430;-78
2024/03/27 02:12:52;;;;;;;11.30;7.10;;;;;;;6.05;100.00;98173.88;5069375;28;20266;-79
2024/03/27 02:15:18;;;;;;;12.37;7.20;;;;;;;6.01;100.00;98201.75;5068856;28;20028;-80
2024/03/27 02:17:43;;;;;;;15.98;8.40;;;;;;;6.09;100.00;98189.16;5077336;28;20035;-78
2024/03/27 02:20:09;;;;;;;10.23;6.82;;;;;;;6.11;100.00;98170.41;5068372;28;20743;-78
2024/03/27 02:22:35;;;;;;;14.40;7.18;;;;;;;6.05;100.00;98142.88;5059363;28;20031;-78
2024/03/27 02:25:12;;;;;;;14.85;8.23;;;;;;;6.01;100.00;98168.13;5089489;28;20513;-79
2024/03/27 02:27:38;;;;;;;12.63;6.75;;;;;;;5.99;100.00;98166.69;5067772;28;20476;-77
2024/03/27 02:30:04;;;;;;;11.07;7.20;;;;;;;5.97;100.00;98158.13;5081342;28;20062;-79
2024/03/27 02:32:29;;;;;;;12.68;6.97;;;;;;;6.03;100.00;98166.09;5088665;28;20131;-77
2024/03/27 02:34:54;;;;;;;12.63;7.67;;;;;;;5.99;100.00;98148.97;5088039;28;20051;-78
2024/03/27 02:37:20;;;;;;;12.10;7.10;;;;;;;5.97;100.00;98127.19;5087966;28;20154;-78
2024/03/27 02:39:45;;;;;;;13.77;7.50;;;;;;;5.95;100.00;98138.97;5088453;28;20505;-79
2024/03/27 02:42:10;;;;;;;13.17;7.20;;;;;;;5.97;100.00;98144.88;5085482;28;20036;-79
2024/03/27 02:44:36;;;;;;;11.23;7.23;;;;;;;6.01;100.00;98140.84;5088216;28;20024;-77
2024/03/27 02:47:01;;;;;;;13.30;8.03;;;;;;;5.91;100.00;98120.78;5059000;28;20042;-78
2024/03/27 02:49:26;;;;;;;14.80;7.50;;;;;;;5.86;100.00;98123.22;5057080;28;20035;-78
2024/03/27 02:51:53;;;;;;;11.60;7.13;;;;;;;5.83;100.00;98157.19;5056964;28;20752;-79
2024/03/27 02:54:18;;;;;;;11.95;7.60;;;;;;;5.89;100.00;98154.59;5079371;28;20463;-78
2024/03/27 02:56:43;;;;;;;11.63;7.00;;;;;;;5.78;100.00;98136.59;5055984;28;20055;-80
2024/03/27 02:59:09;;;;;;;12.27;7.57;;;;;;;5.79;100.00;98140.91;5090844;28;20925;-81
2024/03/27 03:01:34;;;;;;;13.60;8.57;;;;;;;5.61;100.00;98140.59;5089421;28;20377;-78
2024/03/27 03:04:00;;;;;;;14.30;6.77;;;;;;;5.61;100.00;98193.53;5072229;28;20285;-78
2024/03/27 03:06:25;;;;;;;13.67;7.50;;;;;;;5.60;100.00;98210.44;5069011;28;20287;-77
2024/03/27 03:08:51;;;;;;;13.65;8.35;;;;;;;5.50;100.00;98230.09;5080452;28;20019;-78
2024/03/27 03:11:17;;;;;;;19.17;9.45;;;;;;;5.53;100.00;98236.84;5089481;28;20077;-77
2024/03/27 03:13:43;;;;;;;14.18;7.75;;;;;;;5.59;100.00;98224.66;5055936;28;20025;-79
2024/03/27 03:16:09;;;;;;;17.48;7.70;;;;;;;5.69;100.00;98214.56;5089495;28;20589;-79
2024/03/27 03:18:35;;;;;;;16.10;8.48;;;;;;;5.68;100.00;98205.78;5057150;28;20888;-76
2024/03/27 03:21:04;;;;;;;13.98;7.97;;;;;;;5.61;100.00;98189.03;5089184;28;20046;-76
2024/03/27 03:23:30;;;;;;;15.02;8.38;;;;;;;5.58;100.00;98200.03;5088928;28;20063;-79
2024/03/27 03:25:56;;;;;;;13.45;7.97;;;;;;;5.62;100.00;98200.44;5088350;28;20062;-78
2024/03/27 03:28:22;;;;;;;13.20;7.78;;;;;;;5.70;100.00;98208.25;5089310;28;20059;-80
2024/03/27 03:30:47;;;;;;;13.18;8.45;;;;;;;5.58;100.00;98199.22;5057001;28;20028;-79
2024/03/27 03:33:13;;;;;;;12.45;7.65;;;;;;;5.63;100.00;98210.03;5088630;28;20031;-79
2024/03/27 03:35:38;;;;;;;13.45;7.85;;;;;;;5.67;100.00;98208.66;5089498;28;20020;-79
2024/03/27 03:38:04;;;;;;;14.13;8.00;;;;;;;5.71;100.00;98189.53;5067830;28;20043;-77
2024/03/27 03:40:47;;;;;;;14.33;8.17;;;;;;;5.64;100.00;98183.38;5052522;28;20017;-76
2024/03/27 03:43:12;;;;;;;11.57;7.00;;;;;;;5.75;100.00;98195.25;5089148;28;20270;-79
2024/03/27 03:45:38;;;;;;;14.55;8.30;;;;;;;5.73;100.00;98165.50;5086699;28;20047;-78
2024/03/27 03:48:05;;;;;;;12.98;7.78;;;;;;;5.63;100.00;98135.91;5069117;28;20051;-79
2024/03/27 03:50:30;;;;;;;12.88;7.50;;;;;;;5.69;100.00;98130.66;5087118;28;20036;-76
2024/03/27 03:52:55;;;;;;;13.27;7.35;;;;;;;5.70;100.00;98120.88;5088869;28;20082;-78
2024/03/27 03:55:21;;;;;;;18.42;7.47;;;;;;;5.75;100.00;98110.53;5088924;28;20042;-78
2024/03/27 03:57:46;;;;;;;14.50;7.73;;;;;;;5.81;100.00;98104.47;5070174;28;20098;-79
2024/03/27 04:00:19;;;;;;;14.10;7.77;;;;;;;5.79;100.00;98080.00;5088005;28;20051;-80
2024/03/27 04:02:48;;;;;;;12.48;7.65;;;;;;;5.77;100.00;98076.72;5082895;28;20059;-77
2024/03/27 04:05:13;;;;;;;15.82;7.82;;;;;;;5.57;100.00;98020.22;5063920;28;20020;-79
2024/03/27 04:07:39;;;;;;;13.30;8.15;;;;;;;5.68;100.00;98056.72;5071355;28;20097;-80
2024/03/27 04:10:05;;;;;;;13.30;7.07;;;;;;;5.74;100.00;98049.84;5084137;28;20110;-79
2024/03/27 04:12:30;;;;;;;12.85;7.95;;;;;;;5.80;100.00;98044.56;5090220;28;20114;-77
2024/03/27 04:14:56;;;;;;;15.13;7.95;;;;;;;5.62;100.00;97993.97;5062333;28;20036;-78
2024/03/27 04:17:21;;;;;;;15.63;7.55;;;;;;;5.56;100.00;98018.59;5088005;28;20024;-79
2024/03/27 04:19:48;;;;;;;12.75;7.97;;;;;;;5.71;100.00;98053.69;5088622;28;20062;-79
2024/03/27 04:22:13;;;;;;;15.90;8.48;;;;;;;5.57;100.00;98036.94;5078102;28;20020;-79
2024/03/27 04:24:43;;;;;;;13.87;7.17;;;;;;;5.62;100.00;98039.81;5089250;28;20028;-78
2024/03/27 04:27:09;;;;;;;11.23;6.88;;;;;;;5.60;100.00;98036.53;5059605;28;20308;-79
2024/03/27 04:29:34;;;;;;;13.15;7.60;;;;;;;5.60;100.00;98022.50;5088308;28;20111;-79
2024/03/27 04:31:59;;;;;;;11.90;7.90;;;;;;;5.63;100.00;98027.41;5086552;28;20055;-79
2024/03/27 04:34:25;;;;;;;12.57;8.40;;;;;;;5.67;100.00;98044.53;5077989;28;20311;-76
2024/03/27 04:36:50;;;;;;;13.23;7.80;;;;;;;5.50;100.00;98038.72;5085464;28;20072;-77
2024/03/27 04:39:15;;;;;;;14.23;8.13;;;;;;;5.48;100.00;98070.69;5079018;28;20028;-78
2024/03/27 04:41:41;;;;;;;12.67;8.13;;;;;;;5.49;100.00;98063.56;5056875;28;20027;-78
2024/03/27 04:44:06;;;;;;;12.63;6.83;;;;;;;5.59;100.00;98056.06;5083079;28;20065;-78
2024/03/27 04:46:31;;;;;;;12.07;8.17;;;;;;;5.63;100.00;98040.63;5056350;28;20278;-78
2024/03/27 04:48:57;;;;;;;11.63;7.22;;;;;;;5.57;100.00;98038.75;5065968;28;20093;-77
2024/03/27 04:51:22;;;;;;;16.93;7.90;;;;;;;5.63;100.00;98048.56;5090066;28;20135;-77
2024/03/27 04:53:47;;;;;;;12.33;7.93;;;;;;;5.53;100.00;98033.06;5056463;28;20037;-78
2024/03/27 04:56:13;;;;;;;15.33;7.83;;;;;;;5.57;100.00;98038.75;5089411;28;20300;-79
2024/03/27 04:58:38;;;;;;;14.10;8.63;;;;;;;5.50;100.00;98009.59;5080305;28;20602;-78
2024/03/27 05:01:04;;;;;;;13.83;7.37;;;;;;;5.60;100.00;98023.31;5083353;28;20051;-78
2024/03/27 05:03:29;;;;;;;14.97;7.70;;;;;;;5.49;100.00;98000.84;5089115;28;20266;-80
2024/03/27 05:05:54;;;;;;;17.10;7.90;;;;;;;5.62;100.00;98046.91;5089000;28;20073;-77
2024/03/27 05:08:20;;;;;;;14.60;8.03;;;;;;;5.71;100.00;98033.34;5080727;28;20028;-76
2024/03/27 05:10:45;;;;;;;12.20;7.23;;;;;;;5.47;100.00;97992.28;5082419;28;20032;-76
2024/03/27 05:13:11;;;;;;;14.33;8.40;;;;;;;5.40;100.00;98002.03;5081591;28;20285;-77
2024/03/27 05:15:36;;;;;;;14.48;8.30;;;;;;;5.60;100.00;98048.97;5087515;28;20652;-77
2024/03/27 05:18:02;;;;;;;16.80;8.53;;;;;;;5.62;100.00;98031.03;5089038;28;20484;-77
2024/03/27 05:20:28;;;;;;;15.07;7.43;;;;;;;5.50;100.00;98039.56;5089433;28;20282;-79
2024/03/27 05:22:53;;;;;;;21.52;9.02;;;;;;;5.56;100.00;98063.59;5088841;28;20020;-79
2024/03/27 05:25:19;;;;;;;11.70;7.60;;;;;;;5.73;100.00;98062.25;5082553;28;20030;-79
2024/03/27 05:27:45;;;;;;;;;;;;;;;5.80;100.00;98031.31;5069444;28;20442;-76
2024/03/27 05:30:11;;;;;;;13.05;7.38;;;;;;;5.68;100.00;97993.19;5088733;28;20011;-78
2024/03/27 05:32:36;;;;;;;;;;;;;;;5.65;100.00;97985.66;5082585;28;20063;-78
2024/03/27 05:35:02;;;;;;;12.35;7.32;;;;;;;5.72;100.00;98005.03;5082044;28;19912;-79
2024/03/27 05:37:28;;;;;;;10.80;7.22;;;;;;;5.87;100.00;97991.63;5081593;28;20097;-79
2024/03/27 05:39:53;;;;;;;12.63;7.45;;;;;;;6.06;100.00;97995.38;5094131;28;20489;-79
2024/03/27 05:42:19;;;;;;;12.17;6.97;;;;;;;6.00;100.00;97953.81;5076318;28;20071;-79
2024/03/27 05:44:44;;;;;;;13.30;8.07;;;;;;;5.97;100.00;97938.31;5093521;28;20173;-79
2024/03/27 05:47:10;;;;;;;14.23;7.60;;;;;;;6.26;100.00;97945.88;5087669;28;20282;-77
2024/03/27 05:49:35;;;;;;;13.10;7.53;;;;;;;6.12;100.00;97902.69;5091220;28;20116;-77
2024/03/27 05:52:00;;;;;;;11.20;6.50;;;;;;;6.09;100.00;97867.84;5083092;28;20107;-77
2024/03/27 05:54:26;;;;;;;11.43;6.97;;;;;;;6.31;100.00;97892.28;5089378;28;20085;-79
2024/03/27 05:56:51;;;;;;;13.80;7.03;;;;;;;5.96;100.00;97806.94;5093491;28;20048;-78
2024/03/27 05:59:16;;;;;;;11.07;6.47;;;;;;;6.21;100.00;97876.81;5092513;28;20281;-79
2024/03/27 06:01:42;;;;;;;11.57;6.87;;;;;;;6.05;100.00;97850.72;5092857;28;20046;-80
2024/03/27 06:04:08;;;;;;;14.15;8.00;;;;;;;6.22;100.00;97881.06;5072159;28;20093;-80
2024/03/27 06:06:33;;;;;;;13.23;7.70;;;;;;;6.42;100.00;97885.56;5076563;28;20016;-79
2024/03/27 06:08:59;;;;;;;12.73;6.60;;;;;;;6.52;100.00;97851.47;5065991;28;20025;-78
2024/03/27 06:11:24;;;;;;;11.93;6.23;;;;;;;6.42;100.00;97776.91;5088344;28;21196;-79
2024/03/27 06:13:49;;;;;;;12.07;6.67;;;;;;;6.54;100.00;97794.59;5091292;28;20044;-77
2024/03/27 06:16:15;;;;;;;11.80;7.50;;;;;;;6.49;100.00;97756.50;5075628;28;20053;-77
2024/03/27 06:18:44;;;;;;;10.85;6.32;;;;;;;6.46;100.00;97725.09;5091235;28;20051;-77
2024/03/27 06:21:09;;;;;;;12.85;6.80;;;;;;;6.42;100.00;97702.69;5064121;28;20032;-80
2024/03/27 06:23:34;;;;;;;13.15;7.60;;;;;;;6.78;100.00;97746.38;5082587;28;20110;-76
2024/03/27 06:26:01;;;;;;;10.70;7.23;;;;;;;6.94;100.00;97729.97;5092831;28;20124;-77
2024/03/27 06:28:28;;;;;;;11.75;6.78;;;;;;;7.02;100.00;97689.91;5087966;28;20490;-78
2024/03/27 06:31:00;;;;;;;10.77;6.35;;;;;;;7.09;100.00;97656.19;5088038;28;20032;-77
2024/03/27 06:33:25;;;;;;;9.98;6.18;;;;;;;7.21;100.00;97668.78;5090299;28;20050;-78
2024/03/27 06:35:52;;;;;;;10.90;7.40;;;;;;;7.30;100.00;97654.22;5083439;28;20085;-79
2024/03/27 06:38:22;;;;;;;12.82;6.35;;;;;;;7.13;100.00;97601.69;5089468;28;20039;-78
2024/03/27 06:40:47;;;;;;;10.55;5.72;;;;;;;7.28;100.00;97616.47;5089607;28;20032;-77
2024/03/27 06:43:13;;;;;;;10.10;6.43;;;;;;;7.22;100.00;97543.06;5061871;28;20096;-77
2024/03/27 06:45:41;;;;;;;11.48;5.70;;;;;;;7.32;100.00;97561.94;5081492;28;20040;-78
2024/03/27 06:48:06;;;;;;;10.63;6.03;;;;;;;7.45;100.00;97535.25;5102839;22;20119;-77
2024/03/27 06:50:32;;;;;;;9.70;6.67;;;;;;;7.89;100.00;97575.00;5051731;28;20128;-77
2024/03/27 06:52:57;;;;;;;9.53;5.60;;;;;;;7.86;100.00;97438.13;5072851;28;20352;-78
2024/03/27 06:55:22;;;;;;;10.67;6.50;;;;;;;7.56;100.00;97396.50;5056999;28;20545;-77
2024/03/27 06:57:48;;;;;;;9.70;6.00;;;;;;;7.65;100.00;97414.75;5065928;28;20040;-77
2024/03/27 07:00:14;;;;;;;11.43;5.37;;;;;;;7.91;100.00;97379.81;5068768;28;20039;-77
2024/03/27 07:02:40;;;;;;;9.73;6.13;;;;;;;8.32;100.00;97446.47;5085391;28;20033;-77
2024/03/27 07:05:09;;;;;;;14.00;5.88;;;;;;;8.84;100.00;97361.53;5086690;28;20489;-77
2024/03/27 07:07:34;;;;;;;10.25;5.95;;;;;;;9.39;100.00;97243.91;5086567;28;20081;-77
2024/03/27 07:10:00;;;;;;;10.35;5.63;;;;;;;9.10;100.00;97016.94;5084660;28;20432;-77
2024/03/27 07:12:25;;;;;;;10.30;6.03;;;;;;;8.53;100.00;96963.94;5086536;28;20720;-77
2024/03/27 07:14:51;;;;;;;9.27;5.67;;;;;;;9.48;100.00;97175.91;5078055;28;20438;-77
2024/03/27 07:17:17;;;;;;;10.33;5.73;;;;;;;9.03;100.00;96900.03;5069720;28;20024;-77
2024/03/27 07:19:47;;;;;;;8.68;5.63;;;;;;;9.35;100.00;96981.09;5069522;28;20036;-77
2024/03/27 07:22:13;;;;;;;10.77;5.90;;;;;;;8.95;100.00;96878.38;5065454;28;20036;-77
2024/03/27 07:24:39;;;;;;;13.70;6.97;;;;;;;8.68;100.00;97027.97;5083530;28;20117;-77
2024/03/27 07:27:05;;;;;;;10.47;6.47;;;;;;;9.45;100.00;97252.78;5083731;28;20049;-77
2024/03/27 07:29:32;;;;;;;12.63;6.32;;;;;;;9.59;100.00;97138.75;5081552;28;20365;-77
2024/03/27 07:31:57;;;;;;;9.27;5.35;;;;;;;9.36;100.00;97019.94;5077906;28;20193;-77
2024/03/27 07:34:23;;;;;;;9.27;5.97;;;;;;;9.26;100.00;96920.28;5059029;28;20037;-77
2024/03/27 07:36:48;;;;;;;10.57;6.50;;;;;;;9.00;100.00;97001.63;5063063;28;20040;-77
2024/03/27 07:39:13;;;;;;;9.27;5.70;;;;;;;9.64;100.00;97097.03;5066585;28;20339;-78
2024/03/27 07:41:39;;;;;;;7.93;5.40;;;;;;;10.09;100.00;96964.59;5068857;28;20028;-77
2024/03/27 07:44:04;;;;;;;10.87;5.93;;;;;;;10.58;100.00;96892.53;5068985;28;20290;-77
2024/03/27 07:46:30;;;;;;;9.23;5.30;;;;;;;11.16;100.00;96919.28;5071658;28;20028;-76
2024/03/27 07:48:55;;;;;;;11.47;5.57;;;;;;;11.38;100.00;96746.34;5067661;28;20040;-78
2024/03/27 07:51:21;;;;;;;9.97;5.40;;;;;;;11.86;100.00;96745.31;5080234;28;20077;-78
2024/03/27 07:53:47;;;;;;;8.27;5.63;;;;;;;11.57;100.00;96630.97;5085025;28;20016;-78
2024/03/27 07:56:12;;;;;;;8.43;5.20;;;;;;;11.90;99.01;96600.22;5066646;28;20494;-77
2024/03/27 07:58:38;;;;;;;9.77;5.60;;;;;;;11.35;95.01;96270.78;5081334;28;20138;-78
2024/03/27 08:01:04;;;;;;;8.75;4.80;;;;;;;10.74;92.19;95983.81;5080575;28;20270;-77
2024/03/27 08:03:30;;;;;;;8.18;5.13;;;;;;;10.62;92.57;96098.06;5080401;28;20631;-78
2024/03/27 08:05:56;;;;;;;9.65;4.82;;;;;;;10.82;92.51;96231.31;5066067;28;20051;-77
2024/03/27 08:08:22;;;;;;;;;;;;;;;10.47;91.02;96049.09;5065859;28;20070;-77
2024/03/27 08:10:54;;;;;;;8.35;4.90;;;;;;;10.65;91.04;96166.84;5064538;28;20388;-77
2024/03/27 08:13:20;;;;;;;8.35;4.25;;;;;;;11.11;90.09;96227.97;5085450;28;20070;-77
2024/03/27 08:15:45;;;;;;;9.38;5.10;;;;;;;11.21;88.16;96105.09;5084823;28;20103;-77
2024/03/27 08:18:11;;;;;;;11.17;4.50;;;;;;;10.77;87.42;96004.63;5085449;28;20028;-78
2024/03/27 08:20:36;;;;;;;9.47;4.10;;;;;;;11.65;89.13;96387.31;5057303;28;20040;-77
2024/03/27 08:23:02;;;;;;;8.27;4.87;;;;;;;11.95;85.63;96107.66;5068358;28;20016;-77
2024/03/27 08:25:28;;;;;;;19.53;5.80;;;;;;;12.54;85.55;96266.88;5065070;28;20060;-77
2024/03/27 08:27:54;;;;;;;12.43;5.32;;;;;;;12.34;83.53;96072.69;5066129;28;20281;-77
2024/03/27 08:30:19;;;;;;;9.63;5.30;;;;;;;12.33;82.18;95990.88;5064529;28;20032;-77
2024/03/27 08:32:44;;;;;;;13.67;5.33;;;;;;;12.23;82.09;95974.97;5084742;28;20490;-76
2024/03/27 08:35:10;;;;;;;10.33;5.17;;;;;;;12.44;79.85;95836.41;5079637;28;20636;-76
2024/03/27 08:37:36;;;;;;;9.07;4.93;;;;;;;12.74;79.34;95904.63;5059470;28;20082;-76
2024/03/27 08:40:05;;;;;;;9.32;5.25;;;;;;;13.18;79.50;96085.38;5084251;28;20032;-76
2024/03/27 08:42:31;;;;;;;6.25;4.57;;;;;;;14.14;78.59;96220.69;5064373;28;20071;-76
2024/03/27 08:44:58;;;;;;;7.10;4.53;;;;;;;14.55;76.08;96037.50;5063067;28;20032;-76
2024/03/27 08:47:25;;;;;;;7.63;5.13;;;;;;;14.69;74.37;95882.56;5063779;28;20040;-76
2024/03/27 08:49:50;;;;;;;6.15;4.63;;;;;;;14.50;72.61;95707.56;5079676;28;20036;-76
2024/03/27 08:52:15;;;;;;;10.70;5.63;;;;;;;14.73;72.68;95840.63;5081798;28;20055;-76
2024/03/27 08:54:41;;;;;;;7.93;4.77;;;;;;;14.58;71.93;95798.06;5075971;28;20029;-76
2024/03/27 08:57:06;;;;;;;16.40;5.90;;;;;;;14.52;71.42;95805.44;5063390;28;20475;-76
2024/03/27 08:59:32;;;;;;;9.80;4.87;;;;;;;13.63;71.02;95563.22;5064505;28;20036;-76
2024/03/27 09:01:57;;;;;;;10.80;4.97;;;;;;;13.92;72.71;95946.03;5066428;28;20108;-76
2024/03/27 09:04:22;;;;;;;13.20;5.57;;;;;;;13.26;72.43;95727.75;5061274;28;20328;-76
2024/03/27 09:06:48;;;;;;;7.33;4.87;;;;;;;13.84;73.26;96010.28;5076307;28;20032;-75
2024/03/27 09:09:13;;;;;;;7.30;4.77;;;;;;;14.47;71.28;95914.75;5064688;28;20028;-76
2024/03/27 09:11:40;;;;;;;9.63;5.68;;;;;;;13.61;70.25;95551.25;5081446;28;20047;-76
2024/03/27 09:14:05;;;;;;;7.60;5.20;;;;;;;13.46;71.07;95689.84;5083684;28;20032;-76
2024/03/27 09:16:31;;;;;;;7.57;4.93;;;;;;;14.90;70.15;96022.47;5068358;28;20032;-76
2024/03/27 09:18:56;;;;;;;8.53;5.63;;;;;;;14.98;68.56;95795.38;5084962;28;20040;-76
2024/03/27 09:21:22;;;;;;;7.77;5.63;;;;;;;14.49;69.29;95792.66;5069801;28;20032;-75
2024/03/27 09:23:47;;;;;;;11.93;5.20;;;;;;;14.72;67.83;95677.97;5070139;28;20032;-76
2024/03/27 09:26:13;;;;;;;9.30;5.80;;;;;;;14.96;67.32;95693.69;5070182;28;20054;-75
2024/03/27 09:28:38;;;;;;;11.73;6.15;;;;;;;15.26;67.13;95792.44;5084929;28;20117;-76
2024/03/27 09:31:04;;;;;;;10.73;5.70;;;;;;;15.92;66.71;95921.44;5082241;28;20043;-76
2024/03/27 09:33:30;;;;;;;10.85;6.03;;;;;;;15.71;65.36;95738.44;5065492;28;20031;-76
2024/03/27 09:35:55;;;;;;;15.15;5.80;;;;;;;15.20;67.19;95840.16;5080196;28;20039;-76
2024/03/27 09:38:21;;;;;;;15.45;6.22;;;;;;;15.18;68.35;96033.84;5066190;28;20081;-76
2024/03/27 09:40:48;;;;;;;10.70;5.70;;;;;;;16.03;67.97;96180.94;5079266;28;20035;-76
2024/03/27 09:43:15;;;;;;;10.07;4.95;;;;;;;16.76;66.77;96250.56;5070327;28;20040;-76
2024/03/27 09:45:45;;;;;;;8.23;5.50;;;;;;;16.27;64.57;95755.44;5069171;28;20088;-76
2024/03/27 09:48:11;;;;;;;10.88;6.05;;;;;;;16.42;64.56;95851.03;5085183;28;20031;-76
2024/03/27 09:50:38;;;;;;;9.57;6.30;;;;;;;16.30;62.26;95504.59;5088491;28;20032;-76
2024/03/27 09:53:04;;;;;;;6.68;5.13;;;;;;;16.72;63.43;95805.34;5069544;28;20429;-76
2024/03/27 09:55:37;;;;;;;9.63;5.13;;;;;;;17.94;63.50;96177.75;5065490;28;20032;-76
2024/03/27 09:58:07;;;;;;;7.95;5.43;;;;;;;18.63;61.85;96097.56;5066913;28;20039;-76
2024/03/27 10:00:37;;;;;;;10.95;5.82;;;;;;;18.85;59.26;95800.13;5079283;28;20138;-76
2024/03/27 10:03:03;;;;;;;9.10;6.22;;;;;;;16.76;58.51;95014.72;5083537;28;20517;-76
2024/03/27 10:05:29;;;;;;;7.80;4.60;;;;;;;17.70;59.37;95615.44;5083460;28;20549;-76
2024/03/27 10:07:55;;;;;;;15.77;5.93;;;;;;;18.12;58.02;95515.47;5065026;28;20043;-76
2024/03/27 10:10:22;;;;;;;9.60;6.03;;;;;;;17.86;57.91;95478.06;5064088;28;20115;-75
2024/03/27 10:12:47;;;;;;;8.80;5.63;;;;;;;17.84;57.36;95417.47;5062183;28;20032;-76
2024/03/27 10:15:13;;;;;;;9.30;6.13;;;;;;;18.32;57.26;95561.56;5067357;28;20030;-76
2024/03/27 10:17:39;;;;;;;9.32;5.10;;;;;;;17.98;56.65;95352.38;5081885;28;20289;-76
2024/03/27 10:20:06;;;;;;;10.05;5.70;;;;;;;18.35;54.96;95228.88;5083164;28;20044;-75
2024/03/27 10:22:32;;;;;;;11.18;5.43;;;;;;;17.82;56.35;95371.19;5081319;28;20119;-76
2024/03/27 10:24:58;;;;;;;8.55;5.80;;;;;;;18.03;55.40;95317.09;5084884;28;20073;-76
2024/03/27 10:27:23;;;;;;;10.27;4.80;;;;;;;17.62;57.25;95478.78;5083069;28;20062;-75
2024/03/27 10:29:49;;;;;;;7.57;5.43;;;;;;;18.03;56.41;95514.81;5079281;28;20060;-76
2024/03/27 10:32:14;;;;;;;7.60;5.77;;;;;;;18.71;56.90;95843.63;5080962;28;20055;-76
2024/03/27 10:34:41;;;;;;;8.83;5.83;;;;;;;17.85;55.21;95246.44;5079625;28;20490;-76
2024/03/27 10:37:11;;;;;;;8.02;6.03;;;;;;;17.81;55.29;95261.75;5083760;28;20035;-76
2024/03/27 10:39:44;;;;;;;9.32;6.30;;;;;;;17.46;55.85;95302.69;5087022;28;20544;-76
2024/03/27 10:42:14;;;;;;;9.52;5.72;;;;;;;16.97;56.20;95271.16;5086016;28;20035;-76
2024/03/27 10:44:43;;;;;;;9.77;6.97;;;;;;;17.69;55.97;95497.13;5069361;28;20114;-76
2024/03/27 10:47:11;;;;;;;7.10;5.50;;;;;;;18.27;55.57;95626.56;5085845;28;20481;-76
2024/03/27 10:49:38;;;;;;;8.45;5.05;;;;;;;17.57;54.06;95103.53;5085717;28;20057;-76
2024/03/27 10:52:04;;;;;;;9.75;5.85;;;;;;;17.64;55.67;95452.28;5085533;28;20030;-76
2024/03/27 10:54:32;;;;;;;9.77;6.40;;;;;;;17.26;54.31;95086.94;5082598;28;20036;-76
2024/03/27 10:56:59;;;;;;;7.90;5.75;;;;;;;15.87;55.92;94881.88;5083384;28;20027;-76
2024/03/27 10:59:26;;;;;;;11.68;5.88;;;;;;;16.75;55.82;95288.53;5085166;28;20126;-76
2024/03/27 11:02:01;;;;;;;10.20;6.68;;;;;;;16.96;56.13;95373.88;5083174;28;20930;-76
2024/03/27 11:04:30;;;;;;;10.98;5.45;;;;;;;18.41;56.31;95921.28;5085650;28;20028;-76
2024/03/27 11:06:57;;;;;;;8.98;5.60;;;;;;;18.70;55.02;95782.63;5068546;28;20024;-76
2024/03/27 11:09:23;;;;;;;7.72;5.32;;;;;;;19.75;54.80;96044.47;5085375;28;20063;-76
2024/03/27 11:11:49;;;;;;;9.98;5.97;;;;;;;18.97;54.15;95642.63;5082369;28;20066;-76
2024/03/27 11:14:19;;;;;;;7.80;5.32;;;;;;;20.11;54.20;96044.81;5082716;28;20509;-76
2024/03/27 11:16:58;;;;;;;10.25;4.80;;;;;;;20.07;54.44;96028.47;5067533;28;20984;-76
2024/03/27 11:19:35;;;;;;;11.32;6.22;;;;;;;19.09;53.31;95475.06;5085411;28;20455;-77
2024/03/27 11:22:23;;;;;;;9.30;5.95;;;;;;;17.68;54.35;95113.47;5082596;28;20505;-77
2024/03/27 11:24:49;;;;;;;9.02;5.22;;;;;;;18.17;56.15;95705.25;5082326;28;20036;-77